KRME/RME METAR and TAF weather

Enter ICAO airport designator
Station Type Date Time Source
KRME METAR 2022/08/16 19:53 UTC NOAA

KRME 161953Z 08005KT 10SM BKN095 OVC120 27/14 A3004 RMK AO2 SLP169 T02670144


Station Type Date Time Source
KRME Decoded METAR 2022/08/16 19:53 UTC NOAA

GRIFFISS AIRFIELD, NY, United States (KRME) 43-14N 075-24W
Aug 16, 2022 - 03:53 PM EDT / 2022.08.16 1953 UTC
Wind: from the E (080 degrees) at 6 MPH (5 KT):0
Visibility: 10 mile(s):0
Sky conditions: overcast
Temperature: 80.1 F (26.7 C)
Dew Point: 57.9 F (14.4 C)
Relative Humidity: 46%
Pressure (altimeter): 30.04 in. Hg (1017 hPa)
ob: KRME 161953Z 08005KT 10SM BKN095 OVC120 27/14 A3004 RMK AO2 SLP169 T02670144
cycle: 20

Station Type Date Time Source
KRME TAF 2022/08/16 18:28 UTC NOAA

TAF KRME 161725Z 1618/1718 10006KT P6SM VCSH SCT050 BKN120
FM170000 08003KT P6SM BKN080
FM171700 05005KT P6SM VCSH BKN060

Example: see airport list